Time;durP1;ratioP1;P1;durP2;ratioP2;P2;SDS_P1;SDS_P2;PMS_P1;PMS_P2;Temp;Humidity;BMP_temperature;BMP_pressure;BME280_temperature;BME280_humidity;BME280_pressure;Samples;Min_cycle;Max_cycle;Signal;HPM_P1;HPM_P2
2023/01/21 00:01:07;;;;;;;3.67;3.37;;;;;;;-143.84;89.33;43988.63;5113927;28;20456;-78
2023/01/21 00:03:34;;;;;;;4.67;4.27;;;;;;;-143.84;89.64;44001.94;5113932;28;20435;-78
2023/01/21 00:06:01;;;;;;;10.63;6.03;;;;;;;-143.84;90.21;44011.47;5113042;28;20435;-78
2023/01/21 00:08:28;;;;;;;10.33;5.97;;;;;;;-143.84;90.67;44032.41;5113647;28;20446;-78
2023/01/21 00:10:57;;;;;;;5.73;5.13;;;;;;;-143.84;90.81;44030.50;5113408;28;20886;-78
2023/01/21 00:13:24;;;;;;;10.63;5.73;;;;;;;-143.84;90.88;44038.09;5113541;28;20443;-78
2023/01/21 00:15:54;;;;;;;5.27;4.60;;;;;;;-143.84;91.25;44036.22;5113660;28;20858;-78
2023/01/21 00:18:21;;;;;;;5.40;4.90;;;;;;;-143.84;90.99;44036.22;5113489;28;20436;-78
2023/01/21 00:20:48;;;;;;;6.93;5.00;;;;;;;-143.84;90.46;44036.22;5113734;28;20868;-78
2023/01/21 00:23:15;;;;;;;4.70;4.30;;;;;;;-143.84;90.26;44036.22;5113574;28;20432;-78
2023/01/21 00:25:42;;;;;;;4.70;3.97;;;;;;;-143.84;89.50;43986.72;5113601;28;20438;-78
2023/01/21 00:28:12;;;;;;;4.27;3.83;;;;;;;-143.84;89.20;43988.63;5113511;28;20435;-77
2023/01/21 00:30:40;;;;;;;4.80;4.40;;;;;;;-143.84;88.54;43975.28;5113158;28;20471;-78
2023/01/21 00:33:07;;;;;;;4.90;4.40;;;;;;;-143.84;88.48;43971.47;5113193;28;20511;-77
2023/01/21 00:35:34;;;;;;;4.73;4.33;;;;;;;-143.84;87.87;43952.44;5113752;28;20423;-78
2023/01/21 00:38:01;;;;;;;4.10;3.80;;;;;;;-143.84;87.46;43935.31;5112810;28;20438;-78
2023/01/21 00:40:29;;;;;;;3.80;3.50;;;;;;;-143.84;87.37;43942.94;5113002;28;20445;-77
2023/01/21 00:42:56;;;;;;;3.83;3.43;;;;;;;-143.84;86.54;43937.22;5113372;28;20423;-77
2023/01/21 00:45:24;;;;;;;3.60;3.30;;;;;;;-143.84;86.82;43910.56;5112916;28;20483;-77
2023/01/21 00:47:51;;;;;;;3.40;3.10;;;;;;;-143.84;86.16;43935.31;5113051;28;20484;-77
2023/01/21 00:50:19;;;;;;;3.00;2.80;;;;;;;-143.84;85.95;43920.09;5112787;28;20528;-78
2023/01/21 00:52:46;;;;;;;7.17;3.50;;;;;;;-143.84;86.15;43914.38;5112844;28;20494;-77
2023/01/21 00:55:13;;;;;;;4.40;2.73;;;;;;;-143.84;86.22;43908.66;5104606;28;20435;-78
2023/01/21 00:57:40;;;;;;;5.10;2.90;;;;;;;-143.84;85.37;43891.53;5112755;28;20427;-77
2023/01/21 01:00:11;;;;;;;3.30;2.70;;;;;;;-143.84;85.68;43897.25;5112554;28;20435;-77
2023/01/21 01:02:40;;;;;;;3.30;3.00;;;;;;;-143.84;85.87;43906.75;5112660;28;20471;-78
2023/01/21 01:05:08;;;;;;;2.90;2.70;;;;;;;-143.84;85.40;43906.75;5112363;28;20447;-78
2023/01/21 01:07:35;;;;;;;2.93;2.70;;;;;;;-143.84;85.89;43897.25;5112937;28;20450;-77
2023/01/21 01:10:02;;;;;;;2.63;2.43;;;;;;;-143.84;85.45;43908.66;5112130;28;20435;-77
2023/01/21 01:12:29;;;;;;;4.00;3.70;;;;;;;-143.84;85.42;43897.25;5112368;28;20438;-78
2023/01/21 01:14:57;;;;;;;3.00;2.80;;;;;;;-143.84;85.30;43874.41;5112340;28;20541;-77
2023/01/21 01:17:24;;;;;;;2.70;2.50;;;;;;;-143.84;84.95;43891.53;5112062;28;20504;-78
2023/01/21 01:19:52;;;;;;;2.60;2.23;;;;;;;-143.84;84.72;43887.72;5112061;28;20423;-78
2023/01/21 01:22:19;;;;;;;2.47;2.27;;;;;;;-143.84;84.66;43891.53;5111787;28;21001;-78
2023/01/21 01:24:46;;;;;;;5.87;2.47;;;;;;;-143.84;84.16;43859.19;5111831;28;20789;-77
2023/01/21 01:27:13;;;;;;;2.47;2.27;;;;;;;-143.84;83.79;43864.88;5111608;28;20431;-78
2023/01/21 01:29:40;;;;;;;2.40;2.20;;;;;;;-143.84;83.09;43855.38;5110268;28;20439;-78
2023/01/21 01:32:08;;;;;;;2.10;2.00;;;;;;;-143.84;83.66;43862.97;5111862;28;20883;-78
2023/01/21 01:34:35;;;;;;;2.77;2.57;;;;;;;-143.84;83.27;43851.56;5112121;28;20410;-78
2023/01/21 01:37:04;;;;;;;2.23;2.07;;;;;;;-143.84;83.11;43834.44;5112007;28;20533;-77
2023/01/21 01:39:31;;;;;;;2.87;2.67;;;;;;;-143.84;83.12;43845.84;5111929;28;20442;-78
2023/01/21 01:41:59;;;;;;;3.03;2.60;;;;;;;-143.84;82.94;43811.59;5111982;28;20436;-78
2023/01/21 01:45:00;;;;;;;2.43;2.33;;;;;;;-143.84;82.37;43845.84;5111746;28;20924;-78
2023/01/21 01:47:32;;;;;;;3.83;2.00;;;;;;;-143.84;82.35;43805.88;5112641;28;20931;-78
2023/01/21 01:50:01;;;;;;;1.97;1.87;;;;;;;-143.84;82.09;43855.38;5111937;28;20436;-77
2023/01/21 01:52:31;;;;;;;2.30;2.10;;;;;;;-143.84;81.81;43853.47;5112457;28;20467;-78
2023/01/21 01:55:01;;;;;;;3.20;2.40;;;;;;;-143.84;82.26;43849.66;5111959;28;20533;-78
2023/01/21 01:57:34;;;;;;;2.00;1.80;;;;;;;-143.84;82.42;43843.94;5111764;28;20495;-78
2023/01/21 02:00:04;;;;;;;2.00;1.90;;;;;;;-143.84;82.68;43847.75;5111654;28;20439;-77
2023/01/21 02:02:33;;;;;;;5.03;2.43;;;;;;;-143.84;81.73;43823.00;5111202;28;20443;-78
2023/01/21 02:05:04;;;;;;;2.17;1.90;;;;;;;-143.84;82.21;43843.94;5110998;28;20998;-78
2023/01/21 02:07:38;;;;;;;3.30;3.00;;;;;;;-143.84;82.03;43847.75;5111011;28;20450;-78
2023/01/21 02:10:07;;;;;;;1.90;1.73;;;;;;;-143.84;81.84;43874.41;5110675;28;20940;-78
2023/01/21 02:12:35;;;;;;;4.33;2.10;;;;;;;-143.84;81.85;43853.47;5110622;28;20528;-78
2023/01/21 02:15:04;;;;;;;1.93;1.83;;;;;;;-143.84;81.78;43874.41;5110911;28;20539;-78
2023/01/21 02:17:51;;;;;;;2.80;2.60;;;;;;;-143.84;80.96;43874.41;5111748;28;20498;-78
2023/01/21 02:20:56;;;;;;;2.30;2.10;;;;;;;-143.84;80.98;43870.59;5110565;28;20556;-78
2023/01/21 02:23:39;;;;;;;2.10;1.97;;;;;;;-143.84;81.15;43893.44;5111646;28;20441;-77
2023/01/21 02:26:56;;;;;;;3.23;2.33;;;;;;;-143.84;80.20;43927.69;5111418;28;20452;-77
2023/01/21 02:30:01;;;;;;;2.10;2.00;;;;;;;-143.84;80.28;43965.78;5112456;28;20435;-77
2023/01/21 02:32:53;;;;;;;2.00;1.90;;;;;;;-143.84;79.29;44028.59;5090272;28;20920;-78
2023/01/21 02:35:28;;;;;;;2.10;2.00;;;;;;;-143.84;78.54;44154.22;5111357;28;20879;-78
2023/01/21 02:38:02;;;;;;;2.50;2.27;;;;;;;-143.84;78.03;44397.91;5115051;28;20865;-78
2023/01/21 02:40:36;;;;;;;2.33;2.23;;;;;;;-143.84;78.30;44498.81;5115081;28;20881;-77
2023/01/21 02:43:09;;;;;;;2.83;2.57;;;;;;;-143.84;78.46;44209.44;5115122;28;20435;-78
2023/01/21 02:45:47;;;;;;;2.50;2.07;;;;;;;-143.84;79.17;44080.00;5115358;28;20539;-78
2023/01/21 02:48:18;;;;;;;5.53;2.80;;;;;;;-143.84;80.30;43933.41;5115039;28;20497;-78
2023/01/21 02:50:50;;;;;;;3.90;3.10;;;;;;;-143.84;80.69;43933.41;5114895;28;20435;-78
2023/01/21 02:53:25;;;;;;;3.43;2.80;;;;;;;-143.84;80.87;43897.25;5115145;28;20435;-78
2023/01/21 02:55:52;;;;;;;6.33;3.50;;;;;;;-143.84;81.22;43857.28;5115023;28;20437;-78
2023/01/21 02:58:23;;;;;;;4.10;3.57;;;;;;;-143.84;81.21;43883.91;5115160;28;20533;-78
2023/01/21 03:01:02;;;;;;;6.00;3.40;;;;;;;-143.84;80.89;43897.25;5114952;28;20480;-78
2023/01/21 03:03:54;;;;;;;6.03;3.40;;;;;;;-143.84;80.57;43912.47;5114860;28;20472;-78
2023/01/21 03:06:55;;;;;;;2.33;2.23;;;;;;;-143.84;79.83;44013.38;5115225;28;20431;-78
2023/01/21 03:09:25;;;;;;;2.50;2.30;;;;;;;-143.84;79.51;43965.78;5115018;28;20452;-78
2023/01/21 03:12:10;;;;;;;2.83;2.63;;;;;;;-143.84;79.82;43982.91;5114676;28;21016;-78
2023/01/21 03:17:36;;;;;;;2.53;1.80;;;;;;;-143.84;79.61;43982.91;5114961;28;20417;-78
2023/01/21 03:20:09;;;;;;;2.17;2.07;;;;;;;-143.84;79.94;43992.41;5115021;28;20426;-78
2023/01/21 03:22:39;;;;;;;2.47;2.30;;;;;;;-143.84;80.13;43969.59;5114604;28;20921;-78
2023/01/21 03:25:09;;;;;;;2.27;2.03;;;;;;;-143.84;79.09;44019.06;5114624;28;20506;-78
2023/01/21 03:27:39;;;;;;;1.83;1.73;;;;;;;-143.84;79.18;44066.66;5114914;28;20485;-78
2023/01/21 03:30:13;;;;;;;1.80;1.70;;;;;;;-143.84;79.14;44083.78;5114470;28;20443;-78
2023/01/21 03:32:43;;;;;;;2.10;1.90;;;;;;;-143.84;78.85;44110.44;5114246;28;20532;-78
2023/01/21 03:35:14;;;;;;;7.30;2.00;;;;;;;-143.84;78.11;44274.16;5114486;28;20449;-78
2023/01/21 03:37:48;;;;;;;3.63;1.60;;;;;;;-143.84;77.51;44382.69;5114918;28;20975;-78
2023/01/21 03:40:22;;;;;;;1.90;1.50;;;;;;;-143.84;77.54;44474.06;5113848;28;20431;-78
2023/01/21 03:42:52;;;;;;;2.33;1.60;;;;;;;-143.84;77.65;44416.94;5113788;28;20848;-78
2023/01/21 03:45:26;;;;;;;2.13;1.80;;;;;;;-143.84;77.86;44354.13;5114160;28;20472;-78
2023/01/21 03:47:59;;;;;;;1.40;1.30;;;;;;;-143.84;78.30;44361.72;5114441;28;20458;-77
2023/01/21 03:50:34;;;;;;;1.87;1.40;;;;;;;-143.84;78.02;44420.75;5114159;28;20500;-78
2023/01/21 03:53:03;;;;;;;1.30;1.20;;;;;;;-143.84;77.72;44453.13;5114553;28;20519;-78
2023/01/21 03:55:30;;;;;;;1.13;1.03;;;;;;;-143.84;78.60;44194.22;5114153;28;20436;-78
2023/01/21 03:57:57;;;;;;;1.80;1.70;;;;;;;-143.84;79.13;44112.34;5113908;28;20874;-78
2023/01/21 04:00:24;;;;;;;3.20;1.67;;;;;;;-143.84;79.20;44036.22;5114120;28;20485;-77
2023/01/21 04:02:52;;;;;;;3.97;1.60;;;;;;;-143.84;79.08;44068.56;5114054;28;20496;-78
2023/01/21 04:05:19;;;;;;;2.73;1.70;;;;;;;-143.84;78.97;44059.03;5095647;28;20435;-78
2023/01/21 04:07:46;;;;;;;4.73;3.40;;;;;;;-143.84;79.45;44020.97;5113670;28;20421;-78
2023/01/21 04:10:14;;;;;;;1.90;1.80;;;;;;;-143.84;79.63;44007.66;5113782;28;20454;-78
2023/01/21 04:12:42;;;;;;;4.37;2.13;;;;;;;-143.84;79.94;43950.53;5113840;28;20550;-78
2023/01/21 04:15:10;;;;;;;2.23;1.97;;;;;;;-143.84;80.33;43883.91;5114250;28;20501;-78
2023/01/21 04:17:37;;;;;;;2.40;2.13;;;;;;;-143.84;80.62;43885.81;5113393;28;20433;-78
2023/01/21 04:20:05;;;;;;;2.07;1.97;;;;;;;-143.84;80.70;43864.88;5113287;28;20449;-77
2023/01/21 04:22:33;;;;;;;8.17;3.03;;;;;;;-143.84;81.20;43847.75;5113295;28;20866;-78
2023/01/21 04:25:00;;;;;;;3.20;2.10;;;;;;;-143.84;81.45;43836.34;5112958;28;20442;-78
2023/01/21 04:27:28;;;;;;;5.33;2.97;;;;;;;-143.84;82.07;43853.47;5112616;28;20870;-78
2023/01/21 04:29:55;;;;;;;4.73;4.17;;;;;;;-143.84;82.80;43845.84;5112608;28;20973;-78
2023/01/21 04:32:23;;;;;;;5.20;4.70;;;;;;;-143.84;82.43;43847.75;5112470;28;20904;-78
2023/01/21 04:34:50;;;;;;;6.23;5.70;;;;;;;-143.84;82.22;43836.34;5110956;28;20435;-78
2023/01/21 04:37:17;;;;;;;4.70;4.30;;;;;;;-143.84;82.27;43824.91;5112222;28;20493;-78
2023/01/21 04:39:44;;;;;;;5.70;4.57;;;;;;;-143.84;82.62;43824.91;5112937;28;20515;-78
2023/01/21 04:42:11;;;;;;;3.60;3.40;;;;;;;-143.84;82.06;43823.00;5113023;28;20495;-78
2023/01/21 04:44:40;;;;;;;3.07;2.30;;;;;;;-143.84;82.23;43840.13;5113136;28;20475;-78
2023/01/21 04:47:07;;;;;;;4.47;1.90;;;;;;;-143.84;82.34;43847.75;5113039;28;20448;-78
2023/01/21 04:49:34;;;;;;;2.07;1.40;;;;;;;-143.84;82.47;43834.44;5112985;28;20849;-78
2023/01/21 04:52:01;;;;;;;2.00;1.90;;;;;;;-143.84;82.57;43821.09;5112533;28;20525;-78
2023/01/21 04:54:28;;;;;;;6.70;6.20;;;;;;;-143.84;82.39;43809.69;5113081;28;20496;-79
2023/01/21 04:56:56;;;;;;;19.93;7.17;;;;;;;-143.84;82.20;43834.44;5112677;28;20431;-77
2023/01/21 04:59:23;;;;;;;9.57;8.67;;;;;;;-143.84;81.57;43862.97;5112621;28;20849;-78
2023/01/21 05:01:51;;;;;;;9.10;8.27;;;;;;;-143.84;81.41;43872.50;5112344;28;20494;-78
2023/01/21 05:04:18;;;;;;;5.87;5.37;;;;;;;-143.84;81.09;43899.16;5112814;28;20435;-78
2023/01/21 05:06:46;;;;;;;7.50;5.70;;;;;;;-143.84;80.65;43861.06;5112488;28;20429;-78
2023/01/21 05:09:13;;;;;;;5.37;4.30;;;;;;;-143.84;80.76;43910.56;5112526;28;20759;-78
2023/01/21 05:11:40;;;;;;;5.43;3.90;;;;;;;-143.84;80.08;43939.13;5112657;28;20517;-78
2023/01/21 05:14:07;;;;;;;5.53;4.87;;;;;;;-143.84;79.08;44083.78;5112595;28;20432;-78
2023/01/21 05:16:34;;;;;;;5.13;4.63;;;;;;;-143.84;79.27;44108.53;5112263;28;20488;-77
2023/01/21 05:19:03;;;;;;;4.93;3.97;;;;;;;-143.84;80.24;43952.44;5112371;28;20931;-77
2023/01/21 05:21:30;;;;;;;8.73;4.60;;;;;;;-143.84;80.23;43956.25;5112830;28;21006;-77
2023/01/21 05:23:57;;;;;;;5.37;4.87;;;;;;;-143.84;79.51;44003.84;5115879;28;20433;-78
2023/01/21 05:26:24;;;;;;;5.60;4.60;;;;;;;-143.84;79.66;44057.16;5113185;28;20515;-78
2023/01/21 05:28:52;;;;;;;4.30;3.80;;;;;;;-143.84;79.88;43952.44;5112077;28;20429;-77
2023/01/21 05:31:19;;;;;;;4.43;3.50;;;;;;;-143.84;80.39;43925.78;5111879;28;20429;-77
2023/01/21 05:33:46;;;;;;;3.20;2.90;;;;;;;-143.84;80.99;43872.50;5112189;28;20521;-77
2023/01/21 05:36:15;;;;;;;3.50;3.20;;;;;;;-143.84;81.13;43893.44;5111390;28;20445;-77
2023/01/21 05:38:42;;;;;;;4.10;3.70;;;;;;;-143.84;81.26;43870.59;5111453;28;20446;-76
2023/01/21 05:41:09;;;;;;;4.97;4.00;;;;;;;-143.84;81.23;43866.78;5111517;28;20442;-80
2023/01/21 05:43:36;;;;;;;4.70;3.20;;;;;;;-143.84;81.82;43830.63;5112114;28;20491;-79
2023/01/21 05:46:05;;;;;;;2.73;2.53;;;;;;;-143.84;81.76;43834.44;5111532;28;21054;-78
2023/01/21 05:48:32;;;;;;;2.90;2.70;;;;;;;-143.84;81.97;43807.78;5111776;28;20442;-78
2023/01/21 05:51:00;;;;;;;1.80;1.70;;;;;;;-143.84;82.51;43834.44;5111928;28;20432;-78
2023/01/21 05:53:28;;;;;;;2.20;1.60;;;;;;;-143.84;82.60;43853.47;5111713;28;21009;-78
2023/01/21 05:55:56;;;;;;;2.77;1.80;;;;;;;-143.84;82.18;43824.91;5111892;28;20431;-78
2023/01/21 05:58:25;;;;;;;2.60;2.40;;;;;;;-143.84;82.01;43838.25;5111998;28;20491;-78
2023/01/21 06:00:52;;;;;;;2.37;1.90;;;;;;;-143.84;83.51;43843.94;5111758;28;20516;-78
2023/01/21 06:03:19;;;;;;;7.33;2.00;;;;;;;-143.84;83.75;43847.75;5111968;28;20430;-78
2023/01/21 06:05:49;;;;;;;2.50;2.20;;;;;;;-143.84;83.91;43864.88;5115687;28;20427;-78
2023/01/21 06:08:16;;;;;;;3.17;2.93;;;;;;;-143.84;84.56;43883.91;5116097;28;20432;-78
2023/01/21 06:10:45;;;;;;;7.00;2.70;;;;;;;-143.84;85.55;43872.50;5116011;28;20442;-78
2023/01/21 06:13:14;;;;;;;3.93;3.40;;;;;;;-143.84;85.96;43927.69;5116064;28;20899;-79
2023/01/21 06:15:41;;;;;;;3.27;3.00;;;;;;;-143.84;85.99;43912.47;5115867;28;20498;-78
2023/01/21 06:18:08;;;;;;;10.73;3.20;;;;;;;-143.84;86.03;43901.06;5115902;28;20442;-79
2023/01/21 06:20:36;;;;;;;4.37;2.93;;;;;;;-143.84;86.41;43908.66;5115889;28;20999;-77
2023/01/21 06:23:03;;;;;;;3.30;3.10;;;;;;;-143.84;86.34;43916.28;5115609;28;20436;-78
2023/01/21 06:25:31;;;;;;;3.00;2.80;;;;;;;-143.84;86.37;43916.28;5115848;28;20506;-78
2023/01/21 06:28:00;;;;;;;2.67;2.47;;;;;;;-143.84;87.28;43927.69;5115406;28;20430;-78
2023/01/21 06:30:27;;;;;;;3.77;2.27;;;;;;;-143.84;87.11;43935.31;5115914;28;20445;-78
2023/01/21 06:32:54;;;;;;;4.17;2.90;;;;;;;-143.84;87.50;43961.97;5115551;28;20518;-78
2023/01/21 06:35:21;;;;;;;1.70;1.53;;;;;;;-143.84;87.71;43975.28;5115700;28;20441;-78
2023/01/21 06:37:49;;;;;;;2.50;1.70;;;;;;;-143.84;88.89;43981.00;5115467;28;20434;-78
2023/01/21 06:40:16;;;;;;;1.80;1.70;;;;;;;-143.84;89.36;43990.53;5115234;28;20510;-78
2023/01/21 06:42:46;;;;;;;3.77;2.30;;;;;;;-143.84;89.23;43981.00;5115351;28;20446;-78
2023/01/21 06:45:15;;;;;;;3.00;2.77;;;;;;;-143.84;88.90;43994.31;5115325;28;20486;-78
2023/01/21 06:47:43;;;;;;;3.80;2.43;;;;;;;-143.84;88.85;43992.41;5115244;28;20442;-77
2023/01/21 06:50:11;;;;;;;4.53;2.40;;;;;;;-143.84;88.62;43996.22;5115465;28;20430;-77
2023/01/21 06:52:40;;;;;;;4.20;2.87;;;;;;;-143.84;88.48;43992.41;5115321;28;20865;-78
2023/01/21 06:55:08;;;;;;;10.53;3.90;;;;;;;-143.84;88.30;43984.81;5115118;28;20979;-77
2023/01/21 06:57:35;;;;;;;4.80;3.70;;;;;;;-143.84;87.80;43984.81;5115314;28;20431;-77
2023/01/21 07:00:03;;;;;;;7.23;2.80;;;;;;;-143.84;87.50;43961.97;5115108;28;20871;-78
2023/01/21 07:02:32;;;;;;;4.37;3.40;;;;;;;-143.84;87.08;43965.78;5114994;28;20446;-78
2023/01/21 07:04:59;;;;;;;2.10;1.90;;;;;;;-143.84;85.30;43902.97;5114818;28;20440;-79
2023/01/21 07:07:27;;;;;;;3.03;2.77;;;;;;;-143.84;85.32;43893.44;5114887;28;20439;-77
2023/01/21 07:09:54;;;;;;;14.03;3.37;;;;;;;-143.84;85.74;43939.13;5114923;28;20440;-78
2023/01/21 07:12:21;;;;;;;3.80;2.40;;;;;;;-143.84;84.58;43876.31;5114624;28;20880;-78
2023/01/21 07:14:48;;;;;;;4.10;2.43;;;;;;;-143.84;83.86;43847.75;5114313;28;20427;-77
2023/01/21 07:17:15;;;;;;;4.13;2.60;;;;;;;-143.84;83.31;43887.72;5114516;28;20438;-79
2023/01/21 07:19:44;;;;;;;6.70;3.70;;;;;;;-143.84;82.07;43819.19;5114050;28;20533;-77
2023/01/21 07:22:11;;;;;;;2.63;2.37;;;;;;;-143.84;79.90;43819.19;5114329;28;20446;-77
2023/01/21 07:24:38;;;;;;;3.20;3.00;;;;;;;-143.84;80.39;43819.19;5114084;28;20567;-77
2023/01/21 07:27:05;;;;;;;4.90;2.73;;;;;;;-143.84;78.94;43887.72;5113209;28;20959;-77
2023/01/21 07:29:32;;;;;;;8.63;2.60;;;;;;;-143.84;75.92;44437.88;5113258;28;21014;-77
2023/01/21 07:32:00;;;;;;;11.30;2.20;;;;;;;-143.84;75.67;44609.22;5113539;28;20444;-78
2023/01/21 07:34:27;;;;;;;4.40;2.27;;;;;;;-143.84;74.75;44738.69;5113603;28;20520;-78
2023/01/21 07:36:55;;;;;;;6.53;2.50;;;;;;;-143.84;75.27;44635.88;5112811;28;20430;-78
2023/01/21 07:39:23;;;;;;;4.70;2.37;;;;;;;-143.84;74.27;44807.25;5112407;28;20860;-80
2023/01/21 07:41:50;;;;;;;6.63;2.33;;;;;;;-143.84;75.14;44607.34;5112010;28;20435;-77
2023/01/21 07:44:18;;;;;;;4.00;2.00;;;;;;;-143.84;73.22;44877.69;5099435;28;20442;-79
2023/01/21 07:46:45;;;;;;;4.40;2.27;;;;;;;-143.84;72.28;44955.75;5106823;28;20508;-79
2023/01/21 07:49:16;;;;;;;6.67;2.60;;;;;;;-143.84;71.57;44995.75;5114391;28;20438;-79
2023/01/21 07:51:43;;;;;;;3.67;2.00;;;;;;;-143.84;71.03;45024.31;5114335;28;20434;-79
2023/01/21 07:54:12;;;;;;;5.07;2.50;;;;;;;-143.84;71.14;44995.75;5113754;28;20469;-78
2023/01/21 07:56:40;;;;;;;19.17;8.07;;;;;;;-143.84;69.94;45016.69;5113760;28;20491;-80
2023/01/21 07:59:07;;;;;;;5.30;2.50;;;;;;;-143.84;68.89;45077.63;5113621;28;20497;-81
2023/01/21 08:01:34;;;;;;;20.77;9.03;;;;;;;-143.84;68.38;45056.69;5113900;28;20434;-80
2023/01/21 08:04:01;;;;;;;3.73;2.03;;;;;;;-143.84;65.82;45098.56;5113702;28;20482;-80
2023/01/21 08:06:28;;;;;;;7.43;3.30;;;;;;;-143.84;65.16;45121.44;5113892;28;20926;-80
2023/01/21 08:08:55;;;;;;;8.97;2.67;;;;;;;-143.84;63.71;45134.75;5112874;28;20955;-80
2023/01/21 08:11:24;;;;;;;6.50;3.00;;;;;;;-143.84;64.43;45110.00;5113285;28;20467;-80
2023/01/21 08:13:52;;;;;;;6.80;3.17;;;;;;;-143.84;65.82;45108.09;5113451;28;20541;-81
2023/01/21 08:16:19;;;;;;;6.70;2.70;;;;;;;-143.84;64.97;45132.84;5115576;28;20438;-81
2023/01/21 08:18:46;;;;;;;9.87;3.40;;;;;;;-143.84;64.59;45115.72;5113155;28;20444;-79
2023/01/21 08:21:13;;;;;;;7.33;3.23;;;;;;;-143.84;63.80;45106.19;5113108;28;20431;-79
2023/01/21 08:23:40;;;;;;;6.87;2.30;;;;;;;-143.84;61.99;45125.22;5113654;28;20932;-80
2023/01/21 08:26:08;;;;;;;7.50;2.90;;;;;;;-143.84;59.12;45123.34;5113631;28;20425;-79
2023/01/21 08:28:36;;;;;;;6.87;3.40;;;;;;;-143.84;57.80;45157.59;5112533;28;21009;-79
2023/01/21 08:31:06;;;;;;;7.10;3.40;;;;;;;-143.84;59.05;45123.34;5113492;28;21157;-79
2023/01/21 08:33:33;;;;;;;7.53;2.40;;;;;;;-143.84;59.19;45113.81;5113557;28;20992;-80
2023/01/21 08:36:01;;;;;;;10.00;3.27;;;;;;;-143.84;57.36;45125.22;5113962;28;20515;-80
2023/01/21 08:38:28;;;;;;;12.30;2.67;;;;;;;-143.84;54.00;45144.28;5113798;28;20428;-79
2023/01/21 08:40:56;;;;;;;10.27;1.90;;;;;;;-143.84;53.49;45127.13;5113246;28;20863;-78
2023/01/21 08:43:23;;;;;;;7.50;2.57;;;;;;;-143.84;54.73;45130.94;5113135;28;20427;-79
2023/01/21 08:45:52;;;;;;;9.87;3.20;;;;;;;-143.84;54.30;45115.72;5112157;28;20475;-77
2023/01/21 08:48:19;;;;;;;8.97;2.93;;;;;;;-143.84;54.97;45144.28;5105696;28;20445;-77
2023/01/21 08:50:46;;;;;;;6.00;2.47;;;;;;;-143.84;54.06;45146.19;5113183;28;20851;-78
2023/01/21 08:53:13;;;;;;;13.70;3.03;;;;;;;-143.84;55.25;45117.63;5112657;28;20473;-75
2023/01/21 08:55:41;;;;;;;7.50;2.77;;;;;;;-143.84;56.37;45127.13;5112591;28;20439;-76
2023/01/21 08:58:08;;;;;;;4.10;2.00;;;;;;;-143.84;56.67;45163.31;5112620;28;20435;-77
2023/01/21 09:00:35;;;;;;;18.20;3.80;;;;;;;-143.84;58.63;45167.13;5112524;28;20495;-77
2023/01/21 09:03:04;;;;;;;13.57;2.60;;;;;;;-143.84;58.41;45127.13;5112788;28;20456;-76
2023/01/21 09:05:31;;;;;;;8.73;3.07;;;;;;;-143.84;58.51;45115.72;5112804;28;20489;-77
2023/01/21 09:07:58;;;;;;;8.60;2.50;;;;;;;-143.84;59.63;45136.66;5112783;28;20431;-76
2023/01/21 09:13:24;;;;;;;9.10;2.20;;;;;;;-143.84;62.12;45148.09;5049399;28;20486;-76
2023/01/21 09:15:51;;;;;;;9.17;2.63;;;;;;;-143.84;58.88;45119.53;5049534;28;20469;-77
2023/01/21 09:18:20;;;;;;;8.30;2.50;;;;;;;-143.84;58.79;45108.09;5077316;28;20505;-77
2023/01/21 09:20:47;;;;;;;10.50;3.70;;;;;;;-143.84;57.54;45132.84;5111617;28;20499;-78
2023/01/21 09:23:27;;;;;;;7.73;2.90;;;;;;;-143.84;59.30;45115.72;5110639;28;20498;-78
2023/01/21 09:25:56;;;;;;;11.60;2.87;;;;;;;-143.84;58.50;45121.44;5112100;28;20432;-78
2023/01/21 09:28:23;;;;;;;10.80;3.50;;;;;;;-143.84;57.83;45125.22;5112376;28;20441;-78
2023/01/21 09:30:56;;;;;;;9.07;3.30;;;;;;;-143.84;57.05;45125.22;5112394;28;20430;-77
2023/01/21 09:33:26;;;;;;;7.40;3.50;;;;;;;-143.84;57.42;45115.72;5111898;28;21168;-76
2023/01/21 09:35:54;;;;;;;14.27;3.73;;;;;;;-143.84;58.31;45100.47;5112526;28;20440;-78
2023/01/21 09:38:22;;;;;;;14.53;3.27;;;;;;;-143.84;59.51;45153.81;5111969;28;20528;-76
2023/01/21 09:40:50;;;;;;;14.50;4.57;;;;;;;-143.84;60.89;45119.53;5111538;28;20864;-78
2023/01/21 09:43:23;;;;;;;5.23;2.67;;;;;;;-143.84;63.37;45140.47;5112018;28;20496;-76
2023/01/21 09:45:52;;;;;;;18.20;3.53;;;;;;;-143.84;64.84;45132.84;5111646;28;20485;-76
2023/01/21 09:48:29;;;;;;;19.03;4.23;;;;;;;-143.84;66.02;45096.66;5104600;28;21057;-75
2023/01/21 09:51:00;;;;;;;14.03;3.73;;;;;;;-143.84;66.95;45106.19;5112219;28;20496;-76
2023/01/21 09:53:35;;;;;;;15.60;5.70;;;;;;;-143.84;67.40;45089.06;5111844;28;20528;-76
2023/01/21 09:56:12;;;;;;;15.13;4.30;;;;;;;-143.84;67.87;45104.28;5111428;28;20437;-73
2023/01/21 09:58:47;;;;;;;17.67;6.80;;;;;;;-143.84;68.13;45111.91;5111738;28;20449;-76
2023/01/21 10:01:22;;;;;;;20.53;5.30;;;;;;;-143.84;67.94;45106.19;5102442;28;20442;-76
2023/01/21 10:03:54;;;;;;;14.23;3.90;;;;;;;-143.84;66.74;45079.53;5109898;28;20431;-75
2023/01/21 10:06:42;;;;;;;9.23;3.43;;;;;;;-143.84;66.17;45110.00;5108097;28;20452;-76
2023/01/21 10:09:30;;;;;;;20.13;4.37;;;;;;;-143.84;64.89;45127.13;5114902;28;20892;-76
2023/01/21 10:12:25;;;;;;;11.00;3.50;;;;;;;-143.84;65.01;45090.97;5119912;28;20434;-75
2023/01/21 10:15:06;;;;;;;13.10;4.33;;;;;;;-143.84;64.18;45106.19;5110497;28;20501;-75
2023/01/21 10:17:46;;;;;;;9.07;3.80;;;;;;;-143.84;65.38;45125.22;5111103;28;20425;-78
2023/01/21 10:20:22;;;;;;;7.00;3.07;;;;;;;-143.84;63.76;45113.81;5111973;28;20502;-77
2023/01/21 10:22:54;;;;;;;9.00;2.70;;;;;;;-143.84;61.40;45111.91;5111411;28;20939;-77
2023/01/21 10:25:26;;;;;;;12.17;3.00;;;;;;;-143.84;61.62;45127.13;5111512;28;20434;-77
2023/01/21 10:27:55;;;;;;;7.40;2.90;;;;;;;-143.84;61.90;45110.00;5111883;28;20935;-78
2023/01/21 10:30:26;;;;;;;6.20;3.63;;;;;;;-143.84;60.96;45127.13;5111963;28;20444;-77
2023/01/21 10:32:56;;;;;;;10.27;3.60;;;;;;;-143.84;61.97;45125.22;5111385;28;20940;-76
2023/01/21 10:35:40;;;;;;;16.13;4.07;;;;;;;-143.84;62.77;45104.28;5111749;28;20545;-74
2023/01/21 10:38:14;;;;;;;13.30;3.60;;;;;;;-143.84;62.60;45142.38;5111894;28;20494;-76
2023/01/21 10:40:47;;;;;;;9.20;3.30;;;;;;;-143.84;61.63;45125.22;5110958;28;20432;-76
2023/01/21 10:43:27;;;;;;;20.03;6.60;;;;;;;-143.84;63.17;45130.94;5094558;28;20435;-77
2023/01/21 10:46:03;;;;;;;16.83;5.03;;;;;;;-143.84;63.26;45121.44;5105650;28;21011;-77
2023/01/21 10:48:38;;;;;;;7.37;3.07;;;;;;;-143.84;64.88;45113.81;5109052;28;20439;-77
2023/01/21 10:51:15;;;;;;;16.77;3.83;;;;;;;-143.84;66.10;45117.63;5112253;28;20496;-76
2023/01/21 10:53:49;;;;;;;16.90;4.50;;;;;;;-143.84;66.66;45113.81;5107341;28;20544;-76
2023/01/21 10:56:32;;;;;;;14.70;3.70;;;;;;;-143.84;65.24;45106.19;5115103;28;20427;-76
2023/01/21 10:59:06;;;;;;;6.67;2.73;;;;;;;-143.84;64.29;45115.72;5115489;28;20809;-76
2023/01/21 11:01:36;;;;;;;8.83;3.50;;;;;;;-143.84;65.87;45117.63;5115095;28;20932;-76
2023/01/21 11:04:10;;;;;;;17.27;3.37;;;;;;;-143.84;64.48;45153.81;5115079;28;20435;-76
2023/01/21 11:06:40;;;;;;;15.83;3.17;;;;;;;-143.84;66.38;45127.13;5115068;28;20442;-76
2023/01/21 11:09:10;;;;;;;9.73;3.10;;;;;;;-143.84;66.03;45077.63;5115383;28;20440;-76
2023/01/21 11:11:39;;;;;;;18.63;4.10;;;;;;;-143.84;65.25;45117.63;5115223;28;20447;-77
2023/01/21 11:14:06;;;;;;;12.63;2.90;;;;;;;-143.84;66.53;45108.09;5114931;28;20615;-76
2023/01/21 11:16:52;;;;;;;13.70;3.40;;;;;;;-143.84;67.57;45106.19;5115980;28;20427;-77
2023/01/21 11:19:23;;;;;;;19.77;3.93;;;;;;;-143.84;67.98;45121.44;5115318;28;20435;-78
2023/01/21 11:22:02;;;;;;;15.00;3.90;;;;;;;-143.84;68.04;45121.44;5114550;28;20497;-78
2023/01/21 11:24:31;;;;;;;4.13;2.80;;;;;;;-143.84;68.87;45090.97;5114062;28;20455;-78
2023/01/21 11:27:00;;;;;;;20.00;3.73;;;;;;;-143.84;69.57;45092.88;5114569;28;20434;-78
2023/01/21 11:29:39;;;;;;;10.40;3.90;;;;;;;-143.84;71.52;45043.34;5114813;28;20940;-79
2023/01/21 11:32:17;;;;;;;12.83;3.63;;;;;;;-143.84;72.27;45052.88;5115283;27;20496;-79
2023/01/21 11:34:46;;;;;;;11.23;4.07;;;;;;;-143.84;72.86;45020.50;5109230;28;20530;-78
2023/01/21 11:37:23;;;;;;;14.10;3.73;;;;;;;-143.84;72.11;45045.25;5113635;28;21122;-78